sensor_id;sensor_type;location;lat;lon;timestamp;temperature;humidity
31677;DHT22;18385;51.572;6.578;2023-07-20T00:00:26;21.10;58.30
31677;DHT22;18385;51.572;6.578;2023-07-20T00:02:52;21.20;58.30
31677;DHT22;18385;51.572;6.578;2023-07-20T00:05:17;21.10;58.30
31677;DHT22;18385;51.572;6.578;2023-07-20T00:07:44;21.20;58.40
31677;DHT22;18385;51.572;6.578;2023-07-20T00:10:10;21.20;58.40
31677;DHT22;18385;51.572;6.578;2023-07-20T00:12:35;21.20;58.50
31677;DHT22;18385;51.572;6.578;2023-07-20T00:15:01;21.20;58.40
31677;DHT22;18385;51.572;6.578;2023-07-20T00:17:27;21.20;58.40
31677;DHT22;18385;51.572;6.578;2023-07-20T00:19:52;21.20;58.50
31677;DHT22;18385;51.572;6.578;2023-07-20T00:22:18;21.20;58.50
31677;DHT22;18385;51.572;6.578;2023-07-20T00:24:43;21.20;58.50
31677;DHT22;18385;51.572;6.578;2023-07-20T00:27:09;21.20;58.40
31677;DHT22;18385;51.572;6.578;2023-07-20T00:29:35;21.20;58.50
31677;DHT22;18385;51.572;6.578;2023-07-20T00:32:01;21.10;58.60
31677;DHT22;18385;51.572;6.578;2023-07-20T00:34:30;21.10;58.60
31677;DHT22;18385;51.572;6.578;2023-07-20T00:36:56;21.00;58.50
31677;DHT22;18385;51.572;6.578;2023-07-20T00:39:22;20.90;58.60
31677;DHT22;18385;51.572;6.578;2023-07-20T00:41:48;20.90;58.90
31677;DHT22;18385;51.572;6.578;2023-07-20T00:44:13;20.90;59.70
31677;DHT22;18385;51.572;6.578;2023-07-20T00:46:39;20.90;59.10
31677;DHT22;18385;51.572;6.578;2023-07-20T00:49:07;20.90;59.10
31677;DHT22;18385;51.572;6.578;2023-07-20T00:51:33;20.80;59.00
31677;DHT22;18385;51.572;6.578;2023-07-20T00:53:59;20.80;59.20
31677;DHT22;18385;51.572;6.578;2023-07-20T00:56:25;20.60;59.20
31677;DHT22;18385;51.572;6.578;2023-07-20T00:58:51;20.60;59.40
31677;DHT22;18385;51.572;6.578;2023-07-20T01:01:17;20.60;59.60
31677;DHT22;18385;51.572;6.578;2023-07-20T01:03:43;20.60;59.80
31677;DHT22;18385;51.572;6.578;2023-07-20T01:11:36;20.60;59.90
31677;DHT22;18385;51.572;6.578;2023-07-20T01:14:03;20.60;60.00
31677;DHT22;18385;51.572;6.578;2023-07-20T01:16:30;20.60;59.90
31677;DHT22;18385;51.572;6.578;2023-07-20T01:18:55;20.50;59.90
31677;DHT22;18385;51.572;6.578;2023-07-20T01:21:26;20.60;60.00
31677;DHT22;18385;51.572;6.578;2023-07-20T01:26:45;20.70;60.20
31677;DHT22;18385;51.572;6.578;2023-07-20T01:31:58;20.70;60.00
31677;DHT22;18385;51.572;6.578;2023-07-20T01:34:25;20.70;60.00
31677;DHT22;18385;51.572;6.578;2023-07-20T01:36:52;20.60;60.00
31677;DHT22;18385;51.572;6.578;2023-07-20T01:39:20;20.50;60.00
31677;DHT22;18385;51.572;6.578;2023-07-20T01:41:46;20.30;60.30
31677;DHT22;18385;51.572;6.578;2023-07-20T01:44:13;20.30;61.50
31677;DHT22;18385;51.572;6.578;2023-07-20T01:46:38;20.20;61.00
31677;DHT22;18385;51.572;6.578;2023-07-20T01:49:04;20.10;61.30
31677;DHT22;18385;51.572;6.578;2023-07-20T01:51:31;20.10;61.50
31677;DHT22;18385;51.572;6.578;2023-07-20T01:53:56;20.00;61.50
31677;DHT22;18385;51.572;6.578;2023-07-20T01:56:22;19.80;61.40
31677;DHT22;18385;51.572;6.578;2023-07-20T01:58:48;19.70;62.10
31677;DHT22;18385;51.572;6.578;2023-07-20T02:01:13;19.50;62.20
31677;DHT22;18385;51.572;6.578;2023-07-20T02:03:39;19.40;62.60
31677;DHT22;18385;51.572;6.578;2023-07-20T02:06:05;19.40;63.20
31677;DHT22;18385;51.572;6.578;2023-07-20T02:08:30;19.40;63.10
31677;DHT22;18385;51.572;6.578;2023-07-20T02:10:56;19.40;63.30
31677;DHT22;18385;51.572;6.578;2023-07-20T02:13:22;19.30;63.40
31677;DHT22;18385;51.572;6.578;2023-07-20T02:15:48;19.40;64.60
31677;DHT22;18385;51.572;6.578;2023-07-20T02:18:15;19.30;63.70
31677;DHT22;18385;51.572;6.578;2023-07-20T02:20:41;19.40;63.90
31677;DHT22;18385;51.572;6.578;2023-07-20T02:23:07;19.50;64.00
31677;DHT22;18385;51.572;6.578;2023-07-20T02:25:33;19.50;64.00
31677;DHT22;18385;51.572;6.578;2023-07-20T02:27:59;19.60;64.10
31677;DHT22;18385;51.572;6.578;2023-07-20T02:30:25;19.60;63.90
31677;DHT22;18385;51.572;6.578;2023-07-20T02:32:51;19.60;64.00
31677;DHT22;18385;51.572;6.578;2023-07-20T02:35:17;19.60;63.90
31677;DHT22;18385;51.572;6.578;2023-07-20T02:37:42;19.60;63.70
31677;DHT22;18385;51.572;6.578;2023-07-20T02:40:08;19.60;63.80
31677;DHT22;18385;51.572;6.578;2023-07-20T02:42:35;19.60;64.00
31677;DHT22;18385;51.572;6.578;2023-07-20T02:45:04;19.70;64.20
31677;DHT22;18385;51.572;6.578;2023-07-20T02:47:30;19.70;64.20
31677;DHT22;18385;51.572;6.578;2023-07-20T02:49:57;19.70;64.20
31677;DHT22;18385;51.572;6.578;2023-07-20T02:52:22;19.70;64.30
31677;DHT22;18385;51.572;6.578;2023-07-20T02:54:50;19.70;64.30
31677;DHT22;18385;51.572;6.578;2023-07-20T02:57:16;19.60;64.30
31677;DHT22;18385;51.572;6.578;2023-07-20T02:59:41;19.60;64.30
31677;DHT22;18385;51.572;6.578;2023-07-20T03:02:07;19.60;64.40
31677;DHT22;18385;51.572;6.578;2023-07-20T03:04:35;19.50;64.30
31677;DHT22;18385;51.572;6.578;2023-07-20T03:07:05;19.40;64.50
31677;DHT22;18385;51.572;6.578;2023-07-20T03:09:32;19.40;64.70
31677;DHT22;18385;51.572;6.578;2023-07-20T03:11:58;19.40;64.80
31677;DHT22;18385;51.572;6.578;2023-07-20T03:14:23;19.40;64.90
31677;DHT22;18385;51.572;6.578;2023-07-20T03:16:50;19.50;65.10
31677;DHT22;18385;51.572;6.578;2023-07-20T03:19:16;19.40;64.90
31677;DHT22;18385;51.572;6.578;2023-07-20T03:21:42;19.40;65.00
31677;DHT22;18385;51.572;6.578;2023-07-20T03:24:08;19.40;65.00
31677;DHT22;18385;51.572;6.578;2023-07-20T03:26:34;19.40;65.10
31677;DHT22;18385;51.572;6.578;2023-07-20T03:29:01;19.40;65.10
31677;DHT22;18385;51.572;6.578;2023-07-20T03:31:26;19.30;65.00
31677;DHT22;18385;51.572;6.578;2023-07-20T03:33:52;19.20;65.20
31677;DHT22;18385;51.572;6.578;2023-07-20T03:36:18;19.20;65.40
31677;DHT22;18385;51.572;6.578;2023-07-20T03:38:43;19.30;65.70
31677;DHT22;18385;51.572;6.578;2023-07-20T03:41:09;19.30;65.70
31677;DHT22;18385;51.572;6.578;2023-07-20T03:43:37;19.50;65.70
31677;DHT22;18385;51.572;6.578;2023-07-20T03:46:03;19.60;65.50
31677;DHT22;18385;51.572;6.578;2023-07-20T03:48:33;19.60;65.30
31677;DHT22;18385;51.572;6.578;2023-07-20T03:50:59;19.50;65.20
31677;DHT22;18385;51.572;6.578;2023-07-20T03:53:26;19.50;65.30
31677;DHT22;18385;51.572;6.578;2023-07-20T03:55:53;19.50;65.40
31677;DHT22;18385;51.572;6.578;2023-07-20T03:58:19;19.40;65.50
31677;DHT22;18385;51.572;6.578;2023-07-20T04:00:50;19.40;65.70
31677;DHT22;18385;51.572;6.578;2023-07-20T04:03:17;19.50;65.90
31677;DHT22;18385;51.572;6.578;2023-07-20T04:05:43;19.40;65.80
31677;DHT22;18385;51.572;6.578;2023-07-20T04:08:10;19.50;65.90
31677;DHT22;18385;51.572;6.578;2023-07-20T04:10:42;19.50;65.80
31677;DHT22;18385;51.572;6.578;2023-07-20T04:13:08;19.60;65.80
31677;DHT22;18385;51.572;6.578;2023-07-20T04:15:34;19.60;65.80
31677;DHT22;18385;51.572;6.578;2023-07-20T04:17:59;19.70;65.60
31677;DHT22;18385;51.572;6.578;2023-07-20T04:20:26;19.60;65.60
31677;DHT22;18385;51.572;6.578;2023-07-20T04:22:52;19.70;65.70
31677;DHT22;18385;51.572;6.578;2023-07-20T04:25:18;19.70;65.80
31677;DHT22;18385;51.572;6.578;2023-07-20T04:27:44;19.70;65.80
31677;DHT22;18385;51.572;6.578;2023-07-20T04:30:11;19.80;65.80
31677;DHT22;18385;51.572;6.578;2023-07-20T04:32:38;19.90;65.80
31677;DHT22;18385;51.572;6.578;2023-07-20T04:35:07;20.00;65.80
31677;DHT22;18385;51.572;6.578;2023-07-20T04:37:36;20.00;65.70
31677;DHT22;18385;51.572;6.578;2023-07-20T04:40:03;20.00;65.60
31677;DHT22;18385;51.572;6.578;2023-07-20T04:42:29;20.00;65.50
31677;DHT22;18385;51.572;6.578;2023-07-20T04:44:54;20.10;65.70
31677;DHT22;18385;51.572;6.578;2023-07-20T04:47:20;20.10;65.60
31677;DHT22;18385;51.572;6.578;2023-07-20T04:49:48;20.10;65.60
31677;DHT22;18385;51.572;6.578;2023-07-20T04:52:14;20.00;65.50
31677;DHT22;18385;51.572;6.578;2023-07-20T04:54:39;20.00;65.60
31677;DHT22;18385;51.572;6.578;2023-07-20T04:57:11;19.80;65.50
31677;DHT22;18385;51.572;6.578;2023-07-20T04:59:38;19.70;65.60
31677;DHT22;18385;51.572;6.578;2023-07-20T05:02:04;19.50;65.80
31677;DHT22;18385;51.572;6.578;2023-07-20T05:04:30;19.40;66.20
31677;DHT22;18385;51.572;6.578;2023-07-20T05:06:56;19.30;66.10
31677;DHT22;18385;51.572;6.578;2023-07-20T05:09:23;19.30;66.30
31677;DHT22;18385;51.572;6.578;2023-07-20T05:11:49;19.20;66.30
31677;DHT22;18385;51.572;6.578;2023-07-20T05:14:15;19.20;66.50
31677;DHT22;18385;51.572;6.578;2023-07-20T05:16:41;19.20;66.70
31677;DHT22;18385;51.572;6.578;2023-07-20T05:19:07;19.20;66.80
31677;DHT22;18385;51.572;6.578;2023-07-20T05:21:33;19.30;66.80
31677;DHT22;18385;51.572;6.578;2023-07-20T05:23:58;19.40;66.60
31677;DHT22;18385;51.572;6.578;2023-07-20T05:26:24;19.40;66.50
31677;DHT22;18385;51.572;6.578;2023-07-20T05:28:50;19.50;66.50
31677;DHT22;18385;51.572;6.578;2023-07-20T05:31:27;19.60;66.70
31677;DHT22;18385;51.572;6.578;2023-07-20T05:34:59;19.80;66.80
31677;DHT22;18385;51.572;6.578;2023-07-20T05:37:31;20.00;66.10
31677;DHT22;18385;51.572;6.578;2023-07-20T05:40:06;20.00;65.90
31677;DHT22;18385;51.572;6.578;2023-07-20T05:42:54;20.10;65.80
31677;DHT22;18385;51.572;6.578;2023-07-20T05:53:16;20.20;65.30
31677;DHT22;18385;51.572;6.578;2023-07-20T05:56:15;20.20;65.40
31677;DHT22;18385;51.572;6.578;2023-07-20T05:59:14;20.20;65.50
31677;DHT22;18385;51.572;6.578;2023-07-20T06:05:08;20.50;65.10
31677;DHT22;18385;51.572;6.578;2023-07-20T06:07:41;20.70;65.00
31677;DHT22;18385;51.572;6.578;2023-07-20T06:10:07;20.80;64.60
31677;DHT22;18385;51.572;6.578;2023-07-20T06:19:06;20.80;64.20
31677;DHT22;18385;51.572;6.578;2023-07-20T06:21:35;20.90;64.20
31677;DHT22;18385;51.572;6.578;2023-07-20T06:24:09;20.80;64.00
31677;DHT22;18385;51.572;6.578;2023-07-20T06:26:57;20.90;64.20
31677;DHT22;18385;51.572;6.578;2023-07-20T06:36:08;21.70;63.60
31677;DHT22;18385;51.572;6.578;2023-07-20T06:38:33;21.80;63.00
31677;DHT22;18385;51.572;6.578;2023-07-20T06:40:59;21.90;63.10
31677;DHT22;18385;51.572;6.578;2023-07-20T06:43:24;22.00;62.90
31677;DHT22;18385;51.572;6.578;2023-07-20T06:45:53;22.20;62.60
31677;DHT22;18385;51.572;6.578;2023-07-20T06:48:19;22.20;62.20
31677;DHT22;18385;51.572;6.578;2023-07-20T06:50:45;22.30;62.10
31677;DHT22;18385;51.572;6.578;2023-07-20T06:53:10;22.30;62.00
31677;DHT22;18385;51.572;6.578;2023-07-20T06:55:36;22.30;61.60
31677;DHT22;18385;51.572;6.578;2023-07-20T06:58:01;22.30;61.60
31677;DHT22;18385;51.572;6.578;2023-07-20T07:00:27;22.30;61.50
31677;DHT22;18385;51.572;6.578;2023-07-20T07:02:53;22.30;61.20
31677;DHT22;18385;51.572;6.578;2023-07-20T07:05:21;22.10;60.70
31677;DHT22;18385;51.572;6.578;2023-07-20T07:07:47;22.00;60.80
31677;DHT22;18385;51.572;6.578;2023-07-20T07:10:12;21.80;60.90
31677;DHT22;18385;51.572;6.578;2023-07-20T07:12:38;21.60;61.10
31677;DHT22;18385;51.572;6.578;2023-07-20T07:15:04;21.50;61.20
31677;DHT22;18385;51.572;6.578;2023-07-20T07:17:33;21.30;61.20
31677;DHT22;18385;51.572;6.578;2023-07-20T07:19:59;21.20;61.50
31677;DHT22;18385;51.572;6.578;2023-07-20T07:22:25;21.10;61.60
31677;DHT22;18385;51.572;6.578;2023-07-20T07:24:51;21.10;61.70
31677;DHT22;18385;51.572;6.578;2023-07-20T07:27:16;21.10;61.90
31677;DHT22;18385;51.572;6.578;2023-07-20T07:29:42;21.20;61.80
31677;DHT22;18385;51.572;6.578;2023-07-20T07:32:12;21.30;61.60
31677;DHT22;18385;51.572;6.578;2023-07-20T07:34:38;21.30;61.40
31677;DHT22;18385;51.572;6.578;2023-07-20T07:37:04;21.30;61.20
31677;DHT22;18385;51.572;6.578;2023-07-20T07:39:30;21.30;61.00
31677;DHT22;18385;51.572;6.578;2023-07-20T07:41:56;21.20;61.00
31677;DHT22;18385;51.572;6.578;2023-07-20T07:44:22;21.00;60.90
31677;DHT22;18385;51.572;6.578;2023-07-20T07:46:49;21.00;61.10
31677;DHT22;18385;51.572;6.578;2023-07-20T07:49:15;21.00;61.30
31677;DHT22;18385;51.572;6.578;2023-07-20T07:51:41;21.10;61.20
31677;DHT22;18385;51.572;6.578;2023-07-20T07:54:06;21.20;61.20
31677;DHT22;18385;51.572;6.578;2023-07-20T07:56:35;21.30;61.00
31677;DHT22;18385;51.572;6.578;2023-07-20T07:59:00;21.50;60.90
31677;DHT22;18385;51.572;6.578;2023-07-20T08:01:26;21.80;60.50
31677;DHT22;18385;51.572;6.578;2023-07-20T08:03:52;22.00;60.40
31677;DHT22;18385;51.572;6.578;2023-07-20T08:06:17;22.20;59.90
31677;DHT22;18385;51.572;6.578;2023-07-20T08:08:43;22.30;59.40
31677;DHT22;18385;51.572;6.578;2023-07-20T08:11:09;22.30;59.00
31677;DHT22;18385;51.572;6.578;2023-07-20T08:13:35;22.40;59.20
31677;DHT22;18385;51.572;6.578;2023-07-20T08:16:01;22.50;59.20
31677;DHT22;18385;51.572;6.578;2023-07-20T08:18:30;22.70;59.00
31677;DHT22;18385;51.572;6.578;2023-07-20T08:20:56;22.90;58.70
31677;DHT22;18385;51.572;6.578;2023-07-20T08:23:22;23.00;58.20
31677;DHT22;18385;51.572;6.578;2023-07-20T08:25:48;23.00;58.00
31677;DHT22;18385;51.572;6.578;2023-07-20T08:28:15;23.10;57.50
31677;DHT22;18385;51.572;6.578;2023-07-20T08:30:45;23.00;57.50
31677;DHT22;18385;51.572;6.578;2023-07-20T08:33:13;22.90;57.40
31677;DHT22;18385;51.572;6.578;2023-07-20T08:35:39;22.80;57.40
31677;DHT22;18385;51.572;6.578;2023-07-20T08:38:06;22.80;57.50
31677;DHT22;18385;51.572;6.578;2023-07-20T08:40:33;22.80;57.50
31677;DHT22;18385;51.572;6.578;2023-07-20T08:43:00;22.80;57.40
31677;DHT22;18385;51.572;6.578;2023-07-20T08:45:27;22.80;57.10
31677;DHT22;18385;51.572;6.578;2023-07-20T08:47:58;22.70;56.80
31677;DHT22;18385;51.572;6.578;2023-07-20T08:50:26;22.60;56.40
31677;DHT22;18385;51.572;6.578;2023-07-20T08:52:57;22.50;56.60
31677;DHT22;18385;51.572;6.578;2023-07-20T08:55:24;22.50;56.80
31677;DHT22;18385;51.572;6.578;2023-07-20T08:57:50;22.50;57.70
31677;DHT22;18385;51.572;6.578;2023-07-20T09:00:19;22.60;57.10
31677;DHT22;18385;51.572;6.578;2023-07-20T09:02:46;22.90;56.70
31677;DHT22;18385;51.572;6.578;2023-07-20T09:05:12;22.90;56.40
31677;DHT22;18385;51.572;6.578;2023-07-20T09:07:40;22.90;56.10
31677;DHT22;18385;51.572;6.578;2023-07-20T09:10:07;22.80;55.90
31677;DHT22;18385;51.572;6.578;2023-07-20T09:12:37;22.80;55.80
31677;DHT22;18385;51.572;6.578;2023-07-20T09:15:04;22.70;55.50
31677;DHT22;18385;51.572;6.578;2023-07-20T09:17:30;22.50;55.40
31677;DHT22;18385;51.572;6.578;2023-07-20T09:19:56;22.30;55.60
31677;DHT22;18385;51.572;6.578;2023-07-20T09:22:21;22.10;55.60
31677;DHT22;18385;51.572;6.578;2023-07-20T09:24:47;22.20;55.80
31677;DHT22;18385;51.572;6.578;2023-07-20T09:27:13;22.30;55.90
31677;DHT22;18385;51.572;6.578;2023-07-20T09:29:51;22.40;55.80
31677;DHT22;18385;51.572;6.578;2023-07-20T09:32:21;22.70;55.50
31677;DHT22;18385;51.572;6.578;2023-07-20T09:34:48;22.90;55.20
31677;DHT22;18385;51.572;6.578;2023-07-20T09:37:23;23.10;54.90
31677;DHT22;18385;51.572;6.578;2023-07-20T09:39:51;23.30;54.20
31677;DHT22;18385;51.572;6.578;2023-07-20T09:42:17;23.40;54.00
31677;DHT22;18385;51.572;6.578;2023-07-20T09:44:44;23.50;53.90
31677;DHT22;18385;51.572;6.578;2023-07-20T09:47:09;23.50;53.60
31677;DHT22;18385;51.572;6.578;2023-07-20T09:49:41;23.60;53.60
31677;DHT22;18385;51.572;6.578;2023-07-20T09:52:09;23.60;53.10
31677;DHT22;18385;51.572;6.578;2023-07-20T09:54:38;23.70;53.00
31677;DHT22;18385;51.572;6.578;2023-07-20T09:57:06;23.80;52.90
31677;DHT22;18385;51.572;6.578;2023-07-20T09:59:33;23.80;52.80
31677;DHT22;18385;51.572;6.578;2023-07-20T10:02:01;23.60;52.80
31677;DHT22;18385;51.572;6.578;2023-07-20T10:04:32;23.40;52.50
31677;DHT22;18385;51.572;6.578;2023-07-20T10:07:02;23.20;52.80
31677;DHT22;18385;51.572;6.578;2023-07-20T10:09:31;23.20;52.70
31677;DHT22;18385;51.572;6.578;2023-07-20T10:11:59;23.30;52.80
31677;DHT22;18385;51.572;6.578;2023-07-20T10:14:28;23.50;52.50
31677;DHT22;18385;51.572;6.578;2023-07-20T10:16:58;23.70;52.20
31677;DHT22;18385;51.572;6.578;2023-07-20T10:19:46;24.10;52.00
31677;DHT22;18385;51.572;6.578;2023-07-20T10:22:14;24.30;51.30
31677;DHT22;18385;51.572;6.578;2023-07-20T10:24:45;24.40;51.30
31677;DHT22;18385;51.572;6.578;2023-07-20T10:27:12;24.50;51.00
31677;DHT22;18385;51.572;6.578;2023-07-20T10:29:40;24.60;51.00
31677;DHT22;18385;51.572;6.578;2023-07-20T10:32:07;24.70;50.50
31677;DHT22;18385;51.572;6.578;2023-07-20T10:34:33;24.60;50.40
31677;DHT22;18385;51.572;6.578;2023-07-20T10:36:59;24.50;50.50
31677;DHT22;18385;51.572;6.578;2023-07-20T10:39:26;24.40;50.60
31677;DHT22;18385;51.572;6.578;2023-07-20T10:42:06;24.30;50.50
31677;DHT22;18385;51.572;6.578;2023-07-20T10:44:32;24.10;50.30
31677;DHT22;18385;51.572;6.578;2023-07-20T10:47:02;24.10;50.80
31677;DHT22;18385;51.572;6.578;2023-07-20T10:49:28;24.10;50.40
31677;DHT22;18385;51.572;6.578;2023-07-20T10:51:59;24.20;50.50
31677;DHT22;18385;51.572;6.578;2023-07-20T10:56:55;24.70;50.10
31677;DHT22;18385;51.572;6.578;2023-07-20T11:01:57;24.70;49.20
31677;DHT22;18385;51.572;6.578;2023-07-20T11:04:38;24.70;49.30
31677;DHT22;18385;51.572;6.578;2023-07-20T11:07:05;24.90;49.30
31677;DHT22;18385;51.572;6.578;2023-07-20T11:09:36;25.10;49.00
31677;DHT22;18385;51.572;6.578;2023-07-20T11:12:15;25.20;48.30
31677;DHT22;18385;51.572;6.578;2023-07-20T11:14:54;25.10;48.10
31677;DHT22;18385;51.572;6.578;2023-07-20T11:17:20;25.30;48.30
31677;DHT22;18385;51.572;6.578;2023-07-20T11:19:56;25.50;48.10
31677;DHT22;18385;51.572;6.578;2023-07-20T11:22:22;25.70;47.70
31677;DHT22;18385;51.572;6.578;2023-07-20T11:24:48;25.90;47.50
31677;DHT22;18385;51.572;6.578;2023-07-20T11:27:15;25.90;47.10
31677;DHT22;18385;51.572;6.578;2023-07-20T11:29:41;26.00;47.00
31677;DHT22;18385;51.572;6.578;2023-07-20T11:32:07;25.90;46.70
31677;DHT22;18385;51.572;6.578;2023-07-20T11:34:34;25.70;46.50
31677;DHT22;18385;51.572;6.578;2023-07-20T11:37:00;25.50;46.50
31677;DHT22;18385;51.572;6.578;2023-07-20T11:39:26;25.20;46.60
31677;DHT22;18385;51.572;6.578;2023-07-20T11:41:54;25.10;46.90
31677;DHT22;18385;51.572;6.578;2023-07-20T11:44:22;25.00;47.00
31677;DHT22;18385;51.572;6.578;2023-07-20T11:47:03;25.30;47.40
31677;DHT22;18385;51.572;6.578;2023-07-20T11:49:30;25.80;47.20
31677;DHT22;18385;51.572;6.578;2023-07-20T11:51:56;26.30;46.50
31677;DHT22;18385;51.572;6.578;2023-07-20T11:54:23;26.60;45.90
31677;DHT22;18385;51.572;6.578;2023-07-20T11:56:53;26.80;45.40
31677;DHT22;18385;51.572;6.578;2023-07-20T11:59:19;27.00;44.80
31677;DHT22;18385;51.572;6.578;2023-07-20T12:01:45;27.20;44.80
31677;DHT22;18385;51.572;6.578;2023-07-20T12:04:10;27.10;44.30
31677;DHT22;18385;51.572;6.578;2023-07-20T12:06:36;27.00;44.30
31677;DHT22;18385;51.572;6.578;2023-07-20T12:09:02;27.10;44.50
31677;DHT22;18385;51.572;6.578;2023-07-20T12:11:38;27.20;44.10
31677;DHT22;18385;51.572;6.578;2023-07-20T12:14:07;27.40;43.70
31677;DHT22;18385;51.572;6.578;2023-07-20T12:16:33;27.70;43.50
31677;DHT22;18385;51.572;6.578;2023-07-20T12:19:03;27.90;43.40
31677;DHT22;18385;51.572;6.578;2023-07-20T12:21:33;27.80;42.40
31677;DHT22;18385;51.572;6.578;2023-07-20T12:23:59;27.80;42.70
31677;DHT22;18385;51.572;6.578;2023-07-20T12:26:26;27.90;42.80
31677;DHT22;18385;51.572;6.578;2023-07-20T12:28:54;27.90;42.30
31677;DHT22;18385;51.572;6.578;2023-07-20T12:31:20;27.70;42.10
31677;DHT22;18385;51.572;6.578;2023-07-20T12:33:48;27.50;42.50
31677;DHT22;18385;51.572;6.578;2023-07-20T12:36:14;27.60;42.90
31677;DHT22;18385;51.572;6.578;2023-07-20T12:38:40;27.80;42.50
31677;DHT22;18385;51.572;6.578;2023-07-20T12:41:07;27.90;42.00
31677;DHT22;18385;51.572;6.578;2023-07-20T12:43:33;27.70;41.80
31677;DHT22;18385;51.572;6.578;2023-07-20T12:45:59;27.40;42.20
31677;DHT22;18385;51.572;6.578;2023-07-20T12:48:25;27.20;42.10
31677;DHT22;18385;51.572;6.578;2023-07-20T12:50:50;27.00;42.10
31677;DHT22;18385;51.572;6.578;2023-07-20T12:53:16;26.80;42.20
31677;DHT22;18385;51.572;6.578;2023-07-20T12:55:42;26.60;42.20
31677;DHT22;18385;51.572;6.578;2023-07-20T12:58:08;26.40;42.30
31677;DHT22;18385;51.572;6.578;2023-07-20T13:00:34;26.30;42.50
31677;DHT22;18385;51.572;6.578;2023-07-20T13:03:00;26.30;42.60
31677;DHT22;18385;51.572;6.578;2023-07-20T13:05:32;26.30;42.60
31677;DHT22;18385;51.572;6.578;2023-07-20T13:07:58;26.50;42.40
31677;DHT22;18385;51.572;6.578;2023-07-20T13:10:24;26.60;42.20
31677;DHT22;18385;51.572;6.578;2023-07-20T13:12:50;26.60;42.10
31677;DHT22;18385;51.572;6.578;2023-07-20T13:15:17;26.70;42.00
31677;DHT22;18385;51.572;6.578;2023-07-20T13:17:42;27.10;43.10
31677;DHT22;18385;51.572;6.578;2023-07-20T13:20:10;28.20;44.50
31677;DHT22;18385;51.572;6.578;2023-07-20T13:22:40;29.30;43.80
31677;DHT22;18385;51.572;6.578;2023-07-20T13:25:07;30.20;42.10
31677;DHT22;18385;51.572;6.578;2023-07-20T13:27:34;30.50;40.30
31677;DHT22;18385;51.572;6.578;2023-07-20T13:30:00;30.40;39.30
31677;DHT22;18385;51.572;6.578;2023-07-20T13:32:32;30.30;39.20
31677;DHT22;18385;51.572;6.578;2023-07-20T13:34:57;30.00;39.20
31677;DHT22;18385;51.572;6.578;2023-07-20T13:37:23;29.70;38.40
31677;DHT22;18385;51.572;6.578;2023-07-20T13:39:49;29.10;38.10
31677;DHT22;18385;51.572;6.578;2023-07-20T13:42:14;28.60;38.50
31677;DHT22;18385;51.572;6.578;2023-07-20T13:44:41;28.20;38.60
31677;DHT22;18385;51.572;6.578;2023-07-20T13:47:06;27.80;38.80
31677;DHT22;18385;51.572;6.578;2023-07-20T13:49:32;27.40;39.20
31677;DHT22;18385;51.572;6.578;2023-07-20T13:51:58;27.10;39.60
31677;DHT22;18385;51.572;6.578;2023-07-20T13:54:24;27.00;39.70
31677;DHT22;18385;51.572;6.578;2023-07-20T13:56:50;27.00;39.70
31677;DHT22;18385;51.572;6.578;2023-07-20T13:59:19;26.90;39.60
31677;DHT22;18385;51.572;6.578;2023-07-20T14:01:46;27.00;39.60
31677;DHT22;18385;51.572;6.578;2023-07-20T14:04:12;27.10;39.60
31677;DHT22;18385;51.572;6.578;2023-07-20T14:06:38;27.40;39.80
31677;DHT22;18385;51.572;6.578;2023-07-20T14:09:03;27.70;39.20
31677;DHT22;18385;51.572;6.578;2023-07-20T14:11:29;28.00;38.90
31677;DHT22;18385;51.572;6.578;2023-07-20T14:13:55;28.40;38.50
31677;DHT22;18385;51.572;6.578;2023-07-20T14:16:22;29.00;38.30
31677;DHT22;18385;51.572;6.578;2023-07-20T14:18:51;29.40;37.60
31677;DHT22;18385;51.572;6.578;2023-07-20T14:21:17;29.40;36.70
31677;DHT22;18385;51.572;6.578;2023-07-20T14:23:47;29.40;36.70
31677;DHT22;18385;51.572;6.578;2023-07-20T14:26:14;29.40;36.70
31677;DHT22;18385;51.572;6.578;2023-07-20T14:28:39;29.20;36.90
31677;DHT22;18385;51.572;6.578;2023-07-20T14:31:05;29.80;38.50
31677;DHT22;18385;51.572;6.578;2023-07-20T14:33:32;31.50;38.30
31677;DHT22;18385;51.572;6.578;2023-07-20T14:35:57;33.10;36.50
31677;DHT22;18385;51.572;6.578;2023-07-20T14:38:23;34.00;35.00
31677;DHT22;18385;51.572;6.578;2023-07-20T14:40:49;34.10;33.00
31677;DHT22;18385;51.572;6.578;2023-07-20T14:43:14;33.10;31.40
31677;DHT22;18385;51.572;6.578;2023-07-20T14:45:41;31.80;32.40
31677;DHT22;18385;51.572;6.578;2023-07-20T14:48:07;31.80;34.60
31677;DHT22;18385;51.572;6.578;2023-07-20T14:50:33;32.90;34.90
31677;DHT22;18385;51.572;6.578;2023-07-20T14:52:58;33.30;32.50
31677;DHT22;18385;51.572;6.578;2023-07-20T14:55:25;33.00;32.20
31677;DHT22;18385;51.572;6.578;2023-07-20T14:57:51;32.40;32.10
31677;DHT22;18385;51.572;6.578;2023-07-20T15:00:17;31.60;32.20
31677;DHT22;18385;51.572;6.578;2023-07-20T15:02:42;30.70;32.50
31677;DHT22;18385;51.572;6.578;2023-07-20T15:05:09;29.80;33.10
31677;DHT22;18385;51.572;6.578;2023-07-20T15:07:36;29.20;34.20
31677;DHT22;18385;51.572;6.578;2023-07-20T15:10:03;29.00;34.50
31677;DHT22;18385;51.572;6.578;2023-07-20T15:12:29;28.80;34.70
31677;DHT22;18385;51.572;6.578;2023-07-20T15:15:07;28.70;34.70
31677;DHT22;18385;51.572;6.578;2023-07-20T15:17:34;28.70;34.80
31677;DHT22;18385;51.572;6.578;2023-07-20T15:20:00;28.70;34.80
31677;DHT22;18385;51.572;6.578;2023-07-20T15:22:30;29.20;35.70
31677;DHT22;18385;51.572;6.578;2023-07-20T15:24:56;31.30;36.10
31677;DHT22;18385;51.572;6.578;2023-07-20T15:27:22;33.90;34.30
31677;DHT22;18385;51.572;6.578;2023-07-20T15:29:48;35.60;31.80
31677;DHT22;18385;51.572;6.578;2023-07-20T15:32:14;36.10;30.30
31677;DHT22;18385;51.572;6.578;2023-07-20T15:34:42;37.00;29.70
31677;DHT22;18385;51.572;6.578;2023-07-20T15:37:09;36.50;28.10
31677;DHT22;18385;51.572;6.578;2023-07-20T15:39:35;35.20;27.90
31677;DHT22;18385;51.572;6.578;2023-07-20T15:42:01;33.60;28.60
31677;DHT22;18385;51.572;6.578;2023-07-20T15:44:27;32.00;29.30
31677;DHT22;18385;51.572;6.578;2023-07-20T15:46:52;30.70;30.40
31677;DHT22;18385;51.572;6.578;2023-07-20T15:49:18;30.00;31.60
31677;DHT22;18385;51.572;6.578;2023-07-20T15:51:44;30.20;33.40
31677;DHT22;18385;51.572;6.578;2023-07-20T15:54:13;32.40;34.20
31677;DHT22;18385;51.572;6.578;2023-07-20T15:56:40;35.10;32.10
31677;DHT22;18385;51.572;6.578;2023-07-20T15:59:08;36.60;29.80
31677;DHT22;18385;51.572;6.578;2023-07-20T16:01:34;37.90;29.00
31677;DHT22;18385;51.572;6.578;2023-07-20T16:04:00;39.10;28.40
31677;DHT22;18385;51.572;6.578;2023-07-20T16:06:26;39.30;27.40
31677;DHT22;18385;51.572;6.578;2023-07-20T16:08:52;39.40;26.80
31677;DHT22;18385;51.572;6.578;2023-07-20T16:11:18;38.90;25.80